createdAt,value
2022-10-23T00:01:18.650Z,11.81
2022-10-23T00:03:46.226Z,11.86
2022-10-23T00:06:13.451Z,11.82
2022-10-23T00:08:40.547Z,11.81
2022-10-23T00:11:09.341Z,11.75
2022-10-23T00:13:36.303Z,11.72
2022-10-23T00:16:02.851Z,11.65
2022-10-23T00:18:29.519Z,11.62
2022-10-23T00:20:56.783Z,11.59
2022-10-23T00:23:23.566Z,11.59
2022-10-23T00:25:50.423Z,11.57
2022-10-23T00:28:17.148Z,11.51
2022-10-23T00:30:43.938Z,11.51
2022-10-23T00:33:10.525Z,11.43
2022-10-23T00:35:41.186Z,11.47
2022-10-23T00:38:08.733Z,11.45
2022-10-23T00:40:36.685Z,11.44
2022-10-23T00:43:03.561Z,11.35
2022-10-23T00:45:34.399Z,11.36
2022-10-23T00:48:02.192Z,11.33
2022-10-23T00:50:31.677Z,11.29
2022-10-23T00:53:02.045Z,11.26
2022-10-23T00:55:30.212Z,11.21
2022-10-23T00:57:56.972Z,11.18
2022-10-23T01:00:28.971Z,11.15
2022-10-23T01:02:57.471Z,11.13
2022-10-23T01:05:34.997Z,11.06
2022-10-23T01:08:40.404Z,11.05
2022-10-23T01:11:22.106Z,11.07
2022-10-23T01:14:16.659Z,11.01
2022-10-23T01:17:01.904Z,10.98
2022-10-23T01:19:45.929Z,10.93
2022-10-23T01:22:40.031Z,10.93
2022-10-23T01:25:35.774Z,10.87
2022-10-23T01:28:07.258Z,10.88
2022-10-23T01:30:37.769Z,10.85
2022-10-23T01:33:12.089Z,10.80
2022-10-23T01:35:49.157Z,10.74
2022-10-23T01:38:32.119Z,10.75
2022-10-23T01:41:03.442Z,10.75
2022-10-23T01:43:36.150Z,10.72
2022-10-23T01:46:07.525Z,10.62
2022-10-23T01:48:36.253Z,10.64
2022-10-23T01:51:07.545Z,10.65
2022-10-23T01:53:37.758Z,10.62
2022-10-23T01:56:08.671Z,10.56
2022-10-23T01:58:36.470Z,10.57
2022-10-23T02:01:05.997Z,10.56
2022-10-23T02:03:35.447Z,10.53
2022-10-23T02:06:01.967Z,10.46
2022-10-23T02:08:28.553Z,10.47
2022-10-23T02:11:04.012Z,10.45
2022-10-23T02:13:53.444Z,10.42
2022-10-23T02:16:29.378Z,10.39
2022-10-23T02:19:13.849Z,10.35
2022-10-23T02:21:54.719Z,10.34
2022-10-23T02:24:45.841Z,10.28
2022-10-23T02:27:40.962Z,10.28
2022-10-23T02:30:09.803Z,10.26
2022-10-23T02:32:41.333Z,10.25
2022-10-23T02:35:08.801Z,10.29
2022-10-23T02:37:35.092Z,10.30
2022-10-23T02:40:02.049Z,10.29
2022-10-23T02:42:35.725Z,10.33
2022-10-23T02:45:14.170Z,10.30
2022-10-23T02:48:01.134Z,10.29
2022-10-23T02:51:02.888Z,10.40
2022-10-23T02:53:43.428Z,10.39
2022-10-23T02:56:37.969Z,10.36
2022-10-23T02:59:16.801Z,10.32
2022-10-23T03:01:53.313Z,10.32
2022-10-23T03:04:23.556Z,10.29
2022-10-23T03:06:51.360Z,10.21
2022-10-23T03:09:18.253Z,10.27
2022-10-23T03:11:44.990Z,10.27
2022-10-23T03:14:14.518Z,10.22
2022-10-23T03:16:40.913Z,10.23
2022-10-23T03:19:07.329Z,10.26
2022-10-23T03:21:33.741Z,10.26
2022-10-23T03:24:00.462Z,10.26
2022-10-23T03:26:26.750Z,10.25
2022-10-23T03:28:53.149Z,10.23
2022-10-23T03:31:19.504Z,10.28
2022-10-23T03:33:45.802Z,10.31
2022-10-23T03:36:12.455Z,10.34
2022-10-23T03:38:38.882Z,10.30
2022-10-23T03:41:05.574Z,10.33
2022-10-23T03:43:32.227Z,10.33
2022-10-23T03:45:58.745Z,10.31
2022-10-23T03:48:25.044Z,10.30
2022-10-23T03:50:53.000Z,10.28
2022-10-23T03:53:20.400Z,10.32
2022-10-23T03:55:46.744Z,10.30
2022-10-23T03:58:13.277Z,10.32
2022-10-23T04:00:39.715Z,10.37
2022-10-23T04:03:06.093Z,10.36
2022-10-23T04:05:32.427Z,10.38
2022-10-23T04:07:58.841Z,10.39
2022-10-23T04:10:25.525Z,10.34
2022-10-23T04:12:51.837Z,10.33
2022-10-23T04:15:18.143Z,10.31
2022-10-23T04:17:44.638Z,10.36
2022-10-23T04:20:10.945Z,10.32
2022-10-23T04:22:37.237Z,10.36
2022-10-23T04:25:04.061Z,10.37
2022-10-23T04:27:30.977Z,10.36
2022-10-23T04:29:59.102Z,10.40
2022-10-23T04:32:26.144Z,10.40
2022-10-23T04:34:52.808Z,10.41
2022-10-23T04:37:19.198Z,10.44
2022-10-23T04:39:45.827Z,10.45
2022-10-23T04:42:12.132Z,10.44
2022-10-23T04:44:38.411Z,10.40
2022-10-23T04:47:05.159Z,10.40
2022-10-23T04:49:31.441Z,10.39
2022-10-23T04:51:58.149Z,10.40
2022-10-23T04:54:24.448Z,10.35
2022-10-23T04:56:50.838Z,10.37
2022-10-23T04:59:17.259Z,10.39
2022-10-23T05:01:43.708Z,10.40
2022-10-23T05:04:10.230Z,10.28
2022-10-23T05:06:36.898Z,10.36
2022-10-23T05:09:03.384Z,10.32
2022-10-23T05:11:29.751Z,10.37
2022-10-23T05:13:56.032Z,10.33
2022-10-23T05:16:57.589Z,10.40
2022-10-23T05:19:28.898Z,10.37
2022-10-23T05:21:56.770Z,10.36
2022-10-23T05:24:23.878Z,10.31
2022-10-23T05:26:51.161Z,10.36
2022-10-23T05:29:18.030Z,10.31
2022-10-23T05:31:44.608Z,10.31
2022-10-23T05:34:14.130Z,10.33
2022-10-23T05:36:40.512Z,10.20
2022-10-23T05:39:06.885Z,10.29
2022-10-23T05:41:33.230Z,10.22
2022-10-23T05:43:59.879Z,10.36
2022-10-23T05:46:26.173Z,10.38
2022-10-23T05:48:52.605Z,10.37
2022-10-23T05:51:21.017Z,10.43
2022-10-23T05:53:51.384Z,10.32
2022-10-23T05:56:18.433Z,10.30
2022-10-23T05:58:45.696Z,10.28
2022-10-23T06:01:14.017Z,10.26
2022-10-23T06:03:41.209Z,10.24
2022-10-23T06:06:08.263Z,10.35
2022-10-23T06:08:35.268Z,10.24
2022-10-23T06:11:09.500Z,10.20
2022-10-23T06:13:36.584Z,10.19
2022-10-23T06:16:28.981Z,10.21
2022-10-23T06:18:55.473Z,10.21
2022-10-23T06:21:21.879Z,10.20
2022-10-23T06:23:48.232Z,10.33
2022-10-23T06:26:16.827Z,10.30
2022-10-23T06:28:43.436Z,10.23
2022-10-23T06:31:13.009Z,10.20
2022-10-23T06:33:40.345Z,10.17
2022-10-23T06:36:07.820Z,10.19
2022-10-23T06:38:34.101Z,10.19
2022-10-23T06:41:00.543Z,10.17
2022-10-23T06:43:26.922Z,10.20
2022-10-23T06:45:53.252Z,10.14
2022-10-23T06:48:19.602Z,10.23
2022-10-23T06:50:46.001Z,10.24
2022-10-23T06:53:12.501Z,10.26
2022-10-23T06:55:39.042Z,10.29
2022-10-23T06:58:07.169Z,10.33
2022-10-23T07:00:33.464Z,10.32
2022-10-23T07:02:59.963Z,10.40
2022-10-23T07:05:26.249Z,10.38
2022-10-23T07:07:52.777Z,10.58
2022-10-23T07:10:19.186Z,10.60
2022-10-23T07:12:45.931Z,10.56
2022-10-23T07:15:12.399Z,10.59
2022-10-23T07:17:39.088Z,10.57
2022-10-23T07:20:05.574Z,10.58
2022-10-23T07:22:31.999Z,10.64
2022-10-23T07:24:58.324Z,10.71
2022-10-23T07:27:25.487Z,10.73
2022-10-23T07:29:52.888Z,10.73
2022-10-23T07:32:19.213Z,10.80
2022-10-23T07:34:45.724Z,10.75
2022-10-23T07:37:13.219Z,10.81
2022-10-23T07:39:39.710Z,10.82
2022-10-23T07:42:06.289Z,10.84
2022-10-23T07:44:32.751Z,10.95
2022-10-23T07:46:59.340Z,11.02
2022-10-23T07:49:25.951Z,11.19
2022-10-23T07:51:52.327Z,11.27
2022-10-23T07:54:18.745Z,11.36
2022-10-23T07:56:45.230Z,11.39
2022-10-23T07:59:13.000Z,11.45
2022-10-23T08:01:43.089Z,11.49
2022-10-23T08:04:10.597Z,11.59
2022-10-23T08:06:37.138Z,11.58
2022-10-23T08:09:06.247Z,11.66
2022-10-23T08:11:33.312Z,11.92
2022-10-23T08:13:59.749Z,11.90
2022-10-23T08:16:26.115Z,11.89
2022-10-23T08:18:52.586Z,11.94
2022-10-23T08:21:20.073Z,12.05
2022-10-23T08:23:46.452Z,12.08
2022-10-23T08:26:12.960Z,12.16
2022-10-23T08:28:39.426Z,12.15
2022-10-23T08:31:23.816Z,12.25
2022-10-23T08:33:50.670Z,12.27
2022-10-23T08:36:22.996Z,12.33
2022-10-23T08:38:49.989Z,12.42
2022-10-23T08:41:41.053Z,12.58
2022-10-23T08:44:19.737Z,12.73
2022-10-23T08:46:50.567Z,12.79
2022-10-23T08:49:43.780Z,12.91
2022-10-23T08:52:17.113Z,13.03
2022-10-23T08:54:52.844Z,13.09
2022-10-23T08:57:23.170Z,13.25
2022-10-23T09:00:01.564Z,13.31
2022-10-23T09:02:32.620Z,13.43
2022-10-23T09:04:59.400Z,13.51
2022-10-23T09:07:56.873Z,13.55
2022-10-23T09:10:26.368Z,13.65
2022-10-23T09:12:52.704Z,13.90
2022-10-23T09:15:40.172Z,13.89
2022-10-23T09:18:12.620Z,13.97
2022-10-23T09:20:41.357Z,13.97
2022-10-23T09:23:20.152Z,14.04
2022-10-23T09:25:48.078Z,14.17
2022-10-23T09:28:32.844Z,14.19
2022-10-23T09:31:10.446Z,14.24
2022-10-23T09:33:36.892Z,14.31
2022-10-23T09:36:17.878Z,14.44
2022-10-23T09:38:46.929Z,14.60
2022-10-23T09:41:34.873Z,14.72
2022-10-23T09:44:07.341Z,14.88
2022-10-23T09:46:42.428Z,15.02
2022-10-23T09:49:27.014Z,15.20
2022-10-23T09:52:01.242Z,15.35
2022-10-23T09:54:30.480Z,15.46
2022-10-23T09:56:59.989Z,15.64
2022-10-23T09:59:32.491Z,15.79
2022-10-23T10:02:01.270Z,15.95
2022-10-23T10:04:38.526Z,16.41
2022-10-23T10:07:29.364Z,16.47
2022-10-23T10:09:58.348Z,16.49
2022-10-23T10:12:46.499Z,16.53
2022-10-23T10:15:26.351Z,16.77
2022-10-23T10:17:57.256Z,17.04
2022-10-23T10:20:46.582Z,17.14
2022-10-23T10:23:34.734Z,17.37
2022-10-23T10:26:23.041Z,17.72
2022-10-23T10:29:30.726Z,17.95
2022-10-23T10:32:24.491Z,18.23
2022-10-23T10:34:59.051Z,18.34
2022-10-23T10:37:37.809Z,18.57
2022-10-23T10:40:19.901Z,18.84
2022-10-23T10:42:49.122Z,19.11
2022-10-23T10:45:15.370Z,19.17
2022-10-23T10:47:54.240Z,19.55
2022-10-23T10:50:29.576Z,19.39
2022-10-23T10:53:14.651Z,19.54
2022-10-23T10:55:42.090Z,19.31
2022-10-23T10:58:20.178Z,18.96
2022-10-23T11:00:50.192Z,19.03
2022-10-23T11:03:36.167Z,19.01
2022-10-23T11:06:13.215Z,19.27
2022-10-23T11:08:56.142Z,19.28
2022-10-23T11:11:32.040Z,18.96
2022-10-23T11:13:59.068Z,18.93
2022-10-23T11:16:34.447Z,19.11
2022-10-23T11:19:30.780Z,18.93
2022-10-23T11:22:07.130Z,18.84
2022-10-23T11:24:53.458Z,19.49
2022-10-23T11:27:45.529Z,19.20
2022-10-23T11:30:55.479Z,18.83
2022-10-23T11:33:38.355Z,18.72
2022-10-23T11:36:16.982Z,19.11
2022-10-23T11:38:47.419Z,18.84
2022-10-23T11:41:26.744Z,18.73
2022-10-23T11:43:55.432Z,18.62
2022-10-23T11:46:21.737Z,18.84
2022-10-23T11:48:49.140Z,18.69
2022-10-23T11:51:35.024Z,18.55
2022-10-23T11:54:07.502Z,18.52
2022-10-23T11:56:34.117Z,18.38
2022-10-23T11:59:21.598Z,18.37
2022-10-23T12:01:50.221Z,18.34
2022-10-23T12:04:22.216Z,18.33
2022-10-23T12:06:52.876Z,18.45
2022-10-23T12:09:26.395Z,18.36
2022-10-23T12:12:05.096Z,18.23
2022-10-23T12:14:49.601Z,18.30
2022-10-23T12:17:25.007Z,18.52
2022-10-23T12:20:02.175Z,18.67
2022-10-23T12:22:40.387Z,18.56
2022-10-23T12:25:31.701Z,18.69
2022-10-23T12:28:08.635Z,18.56
2022-10-23T12:33:45.757Z,18.07
2022-10-23T12:36:12.112Z,18.32
2022-10-23T12:38:48.628Z,18.31
2022-10-23T12:41:28.790Z,18.23
2022-10-23T12:43:57.698Z,18.14
2022-10-23T12:46:30.807Z,18.12
2022-10-23T12:48:58.432Z,18.10
2022-10-23T12:51:35.465Z,17.98
2022-10-23T12:54:03.269Z,18.06
2022-10-23T12:56:37.110Z,18.06
2022-10-23T12:59:05.277Z,18.07
2022-10-23T13:01:34.554Z,18.09
2022-10-23T13:04:21.522Z,18.10
2022-10-23T13:06:50.095Z,17.98
2022-10-23T13:09:39.449Z,17.96
2022-10-23T13:12:07.604Z,17.83
2022-10-23T13:14:39.394Z,17.94
2022-10-23T13:17:10.962Z,17.83
2022-10-23T13:19:37.765Z,17.84
2022-10-23T13:22:20.871Z,17.85
2022-10-23T13:24:47.640Z,17.78
2022-10-23T13:27:34.672Z,17.81
2022-10-23T13:30:01.091Z,17.78
2022-10-23T13:32:30.449Z,17.72
2022-10-23T13:35:10.360Z,17.66
2022-10-23T13:40:27.465Z,17.62
2022-10-23T13:42:55.660Z,17.59
2022-10-23T13:45:24.889Z,17.59
2022-10-23T13:47:51.881Z,17.52
2022-10-23T13:50:18.754Z,17.39
2022-10-23T13:52:46.157Z,17.39
2022-10-23T13:55:23.782Z,17.50
2022-10-23T13:57:50.549Z,17.36
2022-10-23T14:00:17.720Z,17.26
2022-10-23T14:02:44.721Z,17.29
2022-10-23T14:05:12.045Z,17.26
2022-10-23T14:07:38.699Z,17.23
2022-10-23T14:10:05.811Z,17.34
2022-10-23T14:12:39.439Z,17.31
2022-10-23T14:15:06.612Z,17.26
2022-10-23T14:17:34.837Z,17.29
2022-10-23T14:20:04.005Z,17.23
2022-10-23T14:22:32.211Z,17.29
2022-10-23T14:24:58.943Z,17.24
2022-10-23T14:27:25.247Z,17.34
2022-10-23T14:29:51.583Z,17.36
2022-10-23T14:32:19.060Z,17.40
2022-10-23T14:34:51.198Z,17.50
2022-10-23T14:37:17.538Z,17.66
2022-10-23T14:39:48.922Z,17.84
2022-10-23T14:42:16.543Z,17.93
2022-10-23T14:44:42.875Z,18.04
2022-10-23T14:47:09.204Z,18.06
2022-10-23T14:49:35.632Z,18.13
2022-10-23T14:52:02.022Z,18.14
2022-10-23T14:54:28.365Z,18.18
2022-10-23T14:56:54.789Z,18.14
2022-10-23T14:59:21.228Z,18.19
2022-10-23T15:01:48.580Z,18.14
2022-10-23T15:04:15.976Z,18.08
2022-10-23T15:06:43.252Z,17.97
2022-10-23T15:09:09.786Z,17.90
2022-10-23T15:11:36.455Z,17.84
2022-10-23T15:14:03.150Z,17.78
2022-10-23T15:16:29.470Z,17.66
2022-10-23T15:18:55.798Z,17.62
2022-10-23T15:21:22.712Z,17.55
2022-10-23T15:23:49.508Z,17.43
2022-10-23T15:26:19.979Z,17.36
2022-10-23T15:28:47.528Z,17.34
2022-10-23T15:31:29.389Z,17.24
2022-10-23T15:33:59.160Z,17.12
2022-10-23T15:36:26.543Z,17.11
2022-10-23T15:38:52.945Z,17.00
2022-10-23T15:41:28.243Z,16.90
2022-10-23T15:43:54.861Z,16.84
2022-10-23T15:46:21.860Z,16.84
2022-10-23T15:48:48.170Z,16.76
2022-10-23T15:51:14.560Z,16.80
2022-10-23T15:53:41.062Z,17.09
2022-10-23T15:56:07.450Z,17.19
2022-10-23T15:58:33.915Z,17.18
2022-10-23T16:01:04.459Z,17.16
2022-10-23T16:03:30.932Z,17.08
2022-10-23T16:05:57.248Z,16.96
2022-10-23T16:08:23.826Z,16.88
2022-10-23T16:10:50.249Z,16.83
2022-10-23T16:13:16.623Z,16.72
2022-10-23T16:15:42.966Z,16.59
2022-10-23T16:18:10.262Z,16.52
2022-10-23T16:20:40.274Z,16.43
2022-10-23T16:23:06.710Z,16.27
2022-10-23T16:25:36.275Z,16.21
2022-10-23T16:28:03.424Z,16.16
2022-10-23T16:30:29.915Z,16.13
2022-10-23T16:32:56.393Z,16.06
2022-10-23T16:35:23.054Z,16.09
2022-10-23T16:37:49.587Z,16.05
2022-10-23T16:40:16.291Z,15.89
2022-10-23T16:42:43.087Z,15.91
2022-10-23T16:45:10.343Z,15.91
2022-10-23T16:47:36.690Z,15.85
2022-10-23T16:50:03.328Z,15.77
2022-10-23T16:52:29.828Z,15.87
2022-10-23T16:54:56.169Z,15.93
2022-10-23T16:57:22.487Z,15.90
2022-10-23T16:59:48.890Z,15.81
2022-10-23T17:02:15.310Z,15.88
2022-10-23T17:04:41.749Z,15.87
2022-10-23T17:07:08.362Z,15.87
2022-10-23T17:09:34.789Z,16.05
2022-10-23T17:12:01.163Z,16.03
2022-10-23T17:14:27.665Z,15.92
2022-10-23T17:16:55.029Z,15.97
2022-10-23T17:22:09.638Z,15.90
2022-10-23T17:24:37.474Z,15.90
2022-10-23T17:27:04.153Z,16.01
2022-10-23T17:29:30.662Z,16.23
2022-10-23T17:31:57.099Z,16.68
2022-10-23T17:34:23.908Z,17.20
2022-10-23T17:36:52.542Z,17.34
2022-10-23T17:39:24.122Z,17.68
2022-10-23T17:41:50.807Z,17.49
2022-10-23T17:44:17.382Z,17.73
2022-10-23T17:46:43.841Z,17.87
2022-10-23T17:49:11.199Z,17.87
2022-10-23T17:51:37.927Z,17.56
2022-10-23T17:54:07.314Z,17.68
2022-10-23T17:56:35.628Z,17.77
2022-10-23T17:59:06.726Z,17.88
2022-10-23T18:01:33.679Z,18.31
2022-10-23T18:04:02.517Z,17.98
2022-10-23T18:06:32.131Z,17.92
2022-10-23T18:08:59.959Z,17.86
2022-10-23T18:11:30.203Z,17.90
2022-10-23T18:13:57.544Z,17.93
2022-10-23T18:16:24.480Z,17.90
2022-10-23T18:18:50.825Z,17.79
2022-10-23T18:21:19.063Z,17.85
2022-10-23T18:23:45.715Z,17.77
2022-10-23T18:26:28.073Z,17.79
2022-10-23T18:28:57.235Z,17.66
2022-10-23T18:31:25.334Z,17.63
2022-10-23T18:34:03.143Z,17.55
2022-10-23T18:36:33.029Z,17.60
2022-10-23T18:38:59.926Z,17.57
2022-10-23T18:41:26.845Z,17.59
2022-10-23T18:43:54.524Z,17.63
2022-10-23T18:46:21.104Z,17.63
2022-10-23T18:48:48.652Z,17.58
2022-10-23T18:51:21.050Z,17.57
2022-10-23T18:53:47.693Z,17.53
2022-10-23T18:56:19.054Z,17.68
2022-10-23T18:58:45.349Z,17.55
2022-10-23T19:01:11.995Z,17.55
2022-10-23T19:03:38.395Z,17.66
2022-10-23T19:06:06.932Z,17.66
2022-10-23T19:08:36.438Z,17.71
2022-10-23T19:11:02.815Z,17.95
2022-10-23T19:13:29.232Z,17.88
2022-10-23T19:15:55.722Z,17.93
2022-10-23T19:18:22.335Z,17.83
2022-10-23T19:20:48.947Z,17.56
2022-10-23T19:23:16.116Z,17.39
2022-10-23T19:25:45.322Z,17.41
2022-10-23T19:28:11.741Z,17.31
2022-10-23T19:30:38.234Z,17.20
2022-10-23T19:33:04.694Z,17.41
2022-10-23T19:35:31.000Z,16.95
2022-10-23T19:37:57.420Z,16.78
2022-10-23T19:40:27.298Z,16.54
2022-10-23T19:42:53.933Z,16.39
2022-10-23T19:45:20.631Z,16.43
2022-10-23T19:47:47.315Z,16.09
2022-10-23T19:50:14.409Z,15.84
2022-10-23T19:52:40.994Z,15.57
2022-10-23T19:55:08.226Z,15.81
2022-10-23T19:57:34.822Z,16.06
2022-10-23T20:00:01.966Z,15.82
2022-10-23T20:02:28.887Z,15.96
2022-10-23T20:04:55.792Z,15.57
2022-10-23T20:07:22.170Z,15.59
2022-10-23T20:09:48.696Z,15.37
2022-10-23T20:12:15.295Z,15.31
2022-10-23T20:14:41.662Z,15.46
2022-10-23T20:17:08.022Z,15.42
2022-10-23T20:19:34.537Z,15.23
2022-10-23T20:22:00.978Z,15.28
2022-10-23T20:24:27.521Z,15.17
2022-10-23T20:26:55.601Z,15.12
2022-10-23T20:29:23.798Z,15.16
2022-10-23T20:31:51.393Z,15.11
2022-10-23T20:34:17.902Z,15.11
2022-10-23T20:36:47.270Z,15.12
2022-10-23T20:39:20.978Z,15.11
2022-10-23T20:41:48.027Z,15.15
2022-10-23T20:46:48.724Z,15.08
2022-10-23T20:49:15.864Z,15.02
2022-10-23T20:51:42.850Z,15.08
2022-10-23T20:54:09.330Z,15.02
2022-10-23T20:56:38.195Z,15.03
2022-10-23T20:59:11.497Z,15.01
2022-10-23T21:01:47.776Z,14.94
2022-10-23T21:04:14.176Z,14.92
2022-10-23T21:06:57.642Z,14.92
2022-10-23T21:09:29.155Z,14.83
2022-10-23T21:11:55.513Z,14.73
2022-10-23T21:14:21.892Z,14.72
2022-10-23T21:16:48.259Z,14.69
2022-10-23T21:19:15.549Z,14.70
2022-10-23T21:21:43.131Z,14.67
2022-10-23T21:24:13.972Z,14.64
2022-10-23T21:26:40.501Z,14.88
2022-10-23T21:29:17.884Z,14.82
2022-10-23T21:31:45.739Z,14.90
2022-10-23T21:34:12.390Z,14.77
2022-10-23T21:36:53.974Z,14.91
2022-10-23T21:39:25.322Z,14.85
2022-10-23T21:41:51.813Z,14.78
2022-10-23T21:44:18.272Z,14.77
2022-10-23T21:46:44.806Z,14.77
2022-10-23T21:49:12.093Z,14.81
2022-10-23T21:51:39.079Z,14.78
2022-10-23T21:54:08.399Z,14.72
2022-10-23T21:56:47.978Z,14.68
2022-10-23T21:59:19.935Z,14.62
2022-10-23T22:01:48.074Z,14.56
2022-10-23T22:04:15.944Z,14.53
2022-10-23T22:06:43.395Z,14.50
2022-10-23T22:09:13.560Z,14.47
2022-10-23T22:11:40.436Z,14.44
2022-10-23T22:14:07.175Z,14.38
2022-10-23T22:16:33.761Z,14.35
2022-10-23T22:19:00.150Z,14.28
2022-10-23T22:21:28.727Z,14.26
2022-10-23T22:23:57.111Z,14.24
2022-10-23T22:26:26.723Z,14.23
2022-10-23T22:28:54.901Z,14.15
2022-10-23T22:31:23.789Z,14.19
2022-10-23T22:33:51.251Z,14.15
2022-10-23T22:36:17.703Z,14.07
2022-10-23T22:38:44.764Z,14.12
2022-10-23T22:41:11.302Z,14.09
2022-10-23T22:43:37.868Z,14.07
2022-10-23T22:46:15.957Z,14.02
2022-10-23T22:48:43.053Z,13.98
2022-10-23T22:51:12.999Z,13.98
2022-10-23T22:53:39.472Z,14.02
2022-10-23T22:56:08.292Z,14.00
2022-10-23T22:58:35.160Z,13.99
2022-10-23T23:01:08.630Z,13.94
2022-10-23T23:03:36.868Z,13.94
2022-10-23T23:06:05.635Z,13.91
2022-10-23T23:08:32.992Z,13.88
2022-10-23T23:10:59.458Z,13.90
2022-10-23T23:13:27.115Z,13.88
2022-10-23T23:15:53.706Z,13.84
2022-10-23T23:18:21.021Z,13.81
2022-10-23T23:20:47.735Z,13.82
2022-10-23T23:23:14.591Z,13.77
2022-10-23T23:25:42.609Z,13.79
2022-10-23T23:28:11.550Z,13.79
2022-10-23T23:30:39.066Z,13.79
2022-10-23T23:33:05.697Z,13.76
2022-10-23T23:35:32.065Z,13.71
2022-10-23T23:37:58.904Z,13.74
2022-10-23T23:40:26.473Z,13.74
2022-10-23T23:42:52.819Z,13.67
2022-10-23T23:45:19.149Z,13.71
2022-10-23T23:47:45.779Z,13.66
2022-10-23T23:50:12.681Z,13.65
2022-10-23T23:52:39.034Z,13.65
2022-10-23T23:55:05.997Z,13.58
2022-10-23T23:57:32.635Z,13.57
2022-10-23T23:59:59.618Z,13.57
